Flight Track Log - Related Links

Times and Time Zones

All times are in EDT time to prevent confusion due to time zone crossing. See the EJA829P flight status page for this flight to view local times or setup timezone preferences in your user account.

Time Position Orientation Groundspeed Altitude Reporting Facility
EDT Latitude Longitude Course Direction KTS MPH feet Rate Location/Type
Fri 04:48:34 PM 41.5214 -93.6853 251° West 171 197 2,500  Level Minneapolis Center
Fri 04:49:54 PM 41.4919 -93.7981 251° West 231 266 5,500 2,577 Climbing Minneapolis Center
Fri 04:50:56 PM 41.4731 -93.9000 256° West 260 299 8,600 2,565 Climbing Minneapolis Center
Fri 04:51:58 PM 41.4578 -93.9914 257° West 269 310 10,800 2,371 Climbing Minneapolis Center
Fri 04:53:00 PM 41.4383 -94.0939 256° West 283 326 13,500 2,274 Climbing Minneapolis Center
Fri 04:54:02 PM 41.4203 -94.1997 257° West 292 336 15,500 2,177 Climbing Minneapolis Center
Fri 04:55:04 PM 41.3975 -94.3283 257° West 305 351 18,000 2,129 Climbing Minneapolis Center
Fri 04:56:06 PM 41.3742 -94.4436 255° West 317 365 19,900 1,694 Climbing Minneapolis Center
Fri 04:57:08 PM 41.3531 -94.5628 257° West 326 375 21,500 1,597 Climbing Minneapolis Center
Fri 04:58:10 PM 41.3303 -94.6853 256° West 335 386 23,200 1,597 Climbing Minneapolis Center
Fri 04:59:12 PM 41.3025 -94.8317 256° West 339 390 24,800 1,403 Climbing Minneapolis Center
Fri 05:00:14 PM 41.2775 -94.9564 255° West 343 395 26,100 1,113 Climbing Minneapolis Center
Fri 05:01:16 PM 41.2539 -95.0836 256° West 348 400 27,100 968 Climbing Minneapolis Center
Fri 05:02:18 PM 41.2300 -95.2136 256° West 359 413 28,100 919 Climbing Minneapolis Center
Fri 05:03:20 PM 41.2050 -95.3442 256° West 364 419 29,000 919 Climbing Minneapolis Center
Fri 05:04:22 PM 41.1781 -95.4753 255° West 367 422 30,000 1,065 Climbing Minneapolis Center
Fri 05:05:24 PM 41.1478 -95.6278 255° West 364 419 31,200 919 Climbing Minneapolis Center
Fri 05:06:26 PM 41.1303 -95.7181 256° West 365 420 31,900 912 Climbing Minneapolis Center
Fri 05:07:29 PM 41.0936 -95.8922 254° West 363 418 33,100 1,152 Climbing Minneapolis Center
Fri 05:08:31 PM 41.0672 -96.0236 255° West 364 419 34,300 1,065 Climbing Minneapolis Center
Fri 05:09:33 PM 41.0422 -96.1531 256° West 362 417 35,300 968 Climbing Minneapolis Center
Fri 05:10:35 PM 41.0167 -96.2825 255° West 361 415 36,300 968 Climbing Minneapolis Center
Fri 05:11:37 PM 40.9908 -96.4075 255° West 355 409 37,300 968 Climbing Minneapolis Center
Fri 05:12:39 PM 40.9653 -96.5319 255° West 351 404 38,300 968 Climbing Minneapolis Center
Fri 05:13:41 PM 40.9400 -96.6553 255° West 349 402 39,300 750 Climbing Minneapolis Center
Fri 05:14:55 PM 40.9067 -96.7989 253° West 343 395 40,000 350 Climbing Minneapolis Center
Fri 05:15:58 PM 40.8381 -96.9314 236° Southwest 371 427 40,100 480 Climbing Minneapolis Center
Fri 05:17:00 PM 40.7664 -97.0281 226° Southwest 372 428 41,000 435 Climbing Minneapolis Center
Fri 05:18:02 PM 40.6933 -97.1239 225° Southwest 369 425 41,000 48 Level Minneapolis Center
Fri 05:19:04 PM 40.6203 -97.2247 226° Southwest 376 433 41,100 435 Climbing Minneapolis Center
Fri 05:20:06 PM 40.5614 -97.3378 236° Southwest 373 429 41,900 774 Climbing Minneapolis Center
Fri 05:21:08 PM 40.5164 -97.4881 249° West 363 418 42,700 532 Climbing Minneapolis Center
Fri 05:22:10 PM 40.4819 -97.6081 249° West 355 409 43,000 145 Climbing Minneapolis Center
Fri 05:23:12 PM 40.4464 -97.7314 249° West 358 412 43,000  Level Minneapolis Center
Fri 05:24:15 PM 40.4092 -97.8569 249° West 365 420 43,000  Level Minneapolis Center
Fri 05:25:16 PM 40.3711 -97.9831 248° West 369 425 43,000  Level Minneapolis Center
Fri 05:26:18 PM 40.3322 -98.1103 248° West 373 429 43,000  Level Minneapolis Center
Fri 05:27:21 PM 40.2942 -98.2406 249° West 378 435 43,000  Level Minneapolis Center
Fri 05:28:23 PM 40.2519 -98.3953 250° West 376 433 43,000  Level Minneapolis Center
Fri 05:29:25 PM 40.2319 -98.5294 259° West 375 432 43,000  Level Minneapolis Center
Fri 05:30:27 PM 40.2119 -98.6625 259° West 372 428 43,000  Level Minneapolis Center
Fri 05:31:29 PM 40.1939 -98.7956 260° West 371 427 43,000  Level Minneapolis Center
Fri 05:32:31 PM 40.1753 -98.9283 260° West 371 427 43,000  Level Minneapolis Center
Fri 05:33:33 PM 40.1506 -99.0597 256° West 372 428 43,000  Level Minneapolis Center
Fri 05:34:35 PM 40.0983 -99.1761 240° Southwest 371 427 43,000  Level Minneapolis Center
Fri 05:35:37 PM 40.0050 -99.2903 223° Southwest 381 438 43,000  Level Minneapolis Center
Fri 05:36:39 PM 39.9239 -99.3822 221° Southwest 384 442 43,000  Level Minneapolis Center
Fri 05:37:39 PM 39.8458 -99.4775 223° Southwest 386 444 43,000  Level Denver Center
Fri 05:38:41 PM 39.7758 -99.5836 229° Southwest 386 444 43,000  Level Denver Center
Fri 05:39:43 PM 39.7142 -99.6967 235° Southwest 383 441 43,000  Level Denver Center
Fri 05:40:45 PM 39.6536 -99.8128 236° Southwest 386 444 43,000  Level Denver Center
Fri 05:41:47 PM 39.5931 -99.9297 236° Southwest 389 448 43,000  Level Denver Center
Fri 05:42:49 PM 39.5328 -100.0561 238° Southwest 384 442 43,000  Level Denver Center
Fri 05:43:51 PM 39.4750 -100.1928 241° Southwest 387 445 43,000  Level Denver Center
Fri 05:44:54 PM 39.4264 -100.3119 242° Southwest 389 448 43,000  Level Denver Center
Fri 05:45:56 PM 39.3700 -100.4497 242° Southwest 389 448 43,000  Level Denver Center
Fri 05:46:58 PM 39.3219 -100.5708 243° Southwest 391 450 43,000  Level Denver Center
Fri 05:48:00 PM 39.2578 -100.7033 238° Southwest 392 451 43,000  Level Denver Center
Fri 05:49:02 PM 39.1939 -100.8083 232° Southwest 390 449 43,000  Level Denver Center
Fri 05:50:04 PM 39.1197 -100.9347 233° Southwest 393 452 43,000  Level Denver Center
Fri 05:51:06 PM 39.0550 -101.0422 232° Southwest 394 453 43,000  Level Denver Center
Fri 05:52:08 PM 38.9833 -101.1672 234° Southwest 393 452 43,000  Level Denver Center
Fri 05:53:10 PM 38.9178 -101.2739 232° Southwest 396 456 43,000  Level Denver Center
Fri 05:54:12 PM 38.8425 -101.3992 232° Southwest 397 457 43,000  Level Denver Center
Fri 05:55:14 PM 38.7789 -101.5067 233° Southwest 396 456 43,000  Level Denver Center
Fri 05:56:16 PM 38.7167 -101.6161 234° Southwest 397 457 43,000  Level Denver Center
Fri 05:57:18 PM 38.6503 -101.7486 237° Southwest 397 457 43,000  Level Denver Center
Fri 05:58:20 PM 38.5922 -101.8622 237° Southwest 399 459 43,000  Level Denver Center
Fri 05:59:23 PM 38.5194 -101.9914 234° Southwest 401 461 43,000  Level Denver Center
Fri 06:00:25 PM 38.4583 -102.1028 235° Southwest 403 464 43,000  Level Denver Center
Fri 06:01:27 PM 38.3856 -102.2322 234° Southwest 404 465 43,000  Level Denver Center
Fri 06:02:29 PM 38.3275 -102.3478 237° Southwest 405 466 43,000  Level Denver Center
Fri 06:03:31 PM 38.2622 -102.4833 239° Southwest 405 466 43,000  Level Denver Center
Fri 06:04:33 PM 38.2128 -102.6036 242° Southwest 404 465 43,000  Level Denver Center
Fri 06:05:35 PM 38.1578 -102.7467 244° Southwest 404 465 43,000  Level Denver Center
Fri 06:06:37 PM 38.1086 -102.8686 243° Southwest 405 466 43,000  Level Denver Center
Fri 06:07:39 PM 38.0522 -103.0114 243° Southwest 407 468 43,000  Level Denver Center
Fri 06:08:41 PM 38.0081 -103.1317 245° Southwest 406 467 43,000  Level Denver Center
Fri 06:10:45 PM 37.9039 -103.3967 244° Southwest 407 468 43,000  Level Denver Center
Fri 06:11:47 PM 37.8486 -103.5408 244° Southwest 406 467 43,000  Level Denver Center
Fri 06:12:49 PM 37.8106 -103.6678 249° West 403 464 43,000  Level Denver Center
Fri 06:13:51 PM 37.7547 -103.8125 244° Southwest 409 471 43,000  Level Denver Center
Fri 06:14:54 PM 37.7097 -103.9353 245° Southwest 406 467 43,000  Level Denver Center
Fri 06:15:56 PM 37.6519 -104.0792 243° Southwest 423 487 43,000  Level Denver Center
Fri 06:16:58 PM 37.5939 -104.2197 243° Southwest 412 474 43,000  Level Denver Center
Fri 06:18:00 PM 37.5444 -104.3400 243° Southwest 409 471 43,000  Level Denver Center
Fri 06:19:02 PM 37.4872 -104.4806 243° Southwest 406 467 43,000  Level Denver Center
Fri 06:20:04 PM 37.4383 -104.6017 243° Southwest 406 467 43,000  Level Denver Center
Fri 06:21:06 PM 37.3808 -104.7439 243° Southwest 408 470 43,000  Level Denver Center
Fri 06:22:08 PM 37.3325 -104.8664 244° Southwest 409 471 43,000  Level Denver Center
Fri 06:23:10 PM 37.2764 -105.0097 244° Southwest 410 472 43,000  Level Denver Center
Fri 06:24:12 PM 37.2294 -105.1325 244° Southwest 408 470 43,000 48 Level Denver Center
Fri 06:25:14 PM 37.1806 -105.2547 243° Southwest 409 471 43,100 484 Climbing Denver Center
Fri 06:26:16 PM 37.1394 -105.4011 251° West 397 457 44,000 701 Climbing Denver Center
Fri 06:27:31 PM 37.1133 -105.5725 259° West 393 452 44,700 438 Climbing Denver Center
Fri 06:28:33 PM 37.0939 -105.7003 259° West 389 448 45,000 97 Climbing Denver Center
Fri 06:30:37 PM 37.0303 -105.9719 254° West 399 459 45,000  Level Denver Center
Fri 06:31:39 PM 36.9953 -106.1256 254° West 404 465 45,000  Level Denver Center
Fri 06:32:41 PM 36.9617 -106.2489 251° West 403 464 45,000  Level Denver Center
Fri 06:33:43 PM 36.9183 -106.3975 250° West 407 468 45,000  Level Denver Center
Fri 06:34:45 PM 36.8803 -106.5242 249° West 407 468 45,000  Level Denver Center
Fri 06:35:47 PM 36.8375 -106.6736 250° West 409 471 45,000  Level Denver Center
Fri 06:36:49 PM 36.7981 -106.7994 249° West 408 470 45,000  Level Denver Center
Fri 06:37:52 PM 36.7542 -106.9483 250° West 409 471 45,000  Level Denver Center
Fri 06:38:54 PM 36.7342 -107.0822 259° West 411 473 45,000  Level Denver Center
Fri 06:39:56 PM 36.6939 -107.2094 248° West 411 473 45,000  Level Denver Center
Fri 06:40:58 PM 36.6472 -107.3578 249° West 413 475 45,000  Level Denver Center
Fri 06:42:00 PM 36.6081 -107.4861 249° West 414 476 45,000  Level Denver Center
Fri 06:43:02 PM 36.5622 -107.6342 249° West 411 473 45,000  Level Denver Center
Fri 06:44:04 PM 36.5236 -107.7608 249° West 409 471 45,000  Level Denver Center
Fri 06:45:06 PM 36.4781 -107.9072 249° West 408 470 45,000  Level Denver Center
Fri 06:46:08 PM 36.4389 -108.0319 249° West 408 470 45,000  Level Denver Center
Fri 06:47:10 PM 36.3922 -108.1775 248° West 407 468 45,000  Level Denver Center
Fri 06:48:12 PM 36.3536 -108.3039 249° West 408 470 45,000  Level Denver Center
Fri 06:49:14 PM 36.3083 -108.4508 249° West 408 470 45,000  Level Denver Center
Fri 06:50:16 PM 36.2681 -108.5769 248° West 410 472 45,000  Level Denver Center
Fri 06:52:00 PM 36.1974 -108.7915 248° West  Level FlightAware Approximate
Fri 06:53:21 PM 36.1375 -108.9758 248° West 433 498 45,000  Level Albuquerque Center
Fri 06:54:24 PM 36.0911 -109.1192 247° West 416 479 45,000  Level Denver Center
Fri 06:55:00 PM 36.0695 -109.1769 247° West  Level FlightAware Approximate
Fri 06:56:06 PM 36.0114 -109.3519 247° West 423 487 45,000  Level Los Angeles Center
Fri 06:57:09 PM 35.9686 -109.4833 248° West 412 474 45,000  Level Los Angeles Center
Fri 06:58:11 PM 35.9258 -109.6142 248° West 411 473 45,000  Level Los Angeles Center
Fri 06:59:13 PM 35.8817 -109.7442 247° West 412 474 45,000  Level Los Angeles Center
Fri 07:00:15 PM 35.8256 -109.8678 241° Southwest 413 475 45,000  Level Los Angeles Center
Fri 07:01:17 PM 35.7517 -110.0094 237° Southwest 411 473 45,000  Level Los Angeles Center
Fri 07:02:19 PM 35.6889 -110.1264 237° Southwest 410 472 45,000  Level Los Angeles Center
Fri 07:03:21 PM 35.6275 -110.2400 236° Southwest 402 463 45,000  Level Los Angeles Center
Fri 07:04:23 PM 35.5908 -110.3653 250° West 390 449 45,000  Level Los Angeles Center
Fri 07:05:25 PM 35.5442 -110.5036 248° West 399 459 45,000  Level Los Angeles Center
Fri 07:06:27 PM 35.5044 -110.6294 249° West 399 459 45,000  Level Los Angeles Center
Fri 07:07:30 PM 35.4625 -110.7597 248° West 411 473 45,000  Level Los Angeles Center
Fri 07:08:32 PM 35.4189 -110.8908 248° West 417 480 45,000  Level Los Angeles Center
Fri 07:09:34 PM 35.3761 -111.0233 248° West 421 484 45,000  Level Los Angeles Center
Fri 07:10:36 PM 35.3264 -111.1756 248° West 426 490 45,000  Level Los Angeles Center
Fri 07:11:38 PM 35.2828 -111.3094 248° West 425 489 45,000  Level Los Angeles Center
Fri 07:12:49 PM 35.2289 -111.4689 248° West 426 490 45,000  Level Albuquerque Center
Fri 07:13:51 PM 35.1853 -111.6017 248° West 423 487 45,000  Level Albuquerque Center
Fri 07:14:52 PM 35.1378 -111.7400 247° West 422 486 45,000  Level Albuquerque Center
Fri 07:15:54 PM 35.0936 -111.8717 248° West 421 484 45,000  Level Albuquerque Center
Fri 07:16:55 PM 35.0489 -112.0050 248° West 425 489 45,000  Level Albuquerque Center
Fri 07:17:56 PM 35.0039 -112.1367 247° West 424 488 45,000  Level Albuquerque Center
Fri 07:18:58 PM 34.9506 -112.2939 248° West 421 484 45,000  Level Albuquerque Center
Fri 07:19:59 PM 34.9053 -112.4256 247° West 421 484 45,000  Level Albuquerque Center
Fri 07:21:01 PM 34.8592 -112.5592 247° West 425 489 45,000  Level Albuquerque Center
Fri 07:22:02 PM 34.8128 -112.6928 247° West 427 491 45,000  Level Albuquerque Center
Fri 07:23:04 PM 34.7658 -112.8261 247° West 428 493 45,000  Level Albuquerque Center
Fri 07:24:05 PM 34.7200 -112.9586 247° West 427 491 45,000 -98 Level Albuquerque Center
Fri 07:25:06 PM 34.6744 -113.0881 247° West 421 484 44,800 -829 Descending Albuquerque Center
Fri 07:26:08 PM 34.6289 -113.2153 247° West 416 479 43,300 -1,561 Descending Albuquerque Center
Fri 07:27:09 PM 34.5844 -113.3439 247° West 415 478 41,600 -1,756 Descending Albuquerque Center
Fri 07:28:11 PM 34.5294 -113.5011 247° West 418 481 39,700 -1,756 Descending Albuquerque Center
Fri 07:29:12 PM 34.4831 -113.6328 247° West 422 486 38,000 -1,659 Descending Albuquerque Center
Fri 07:30:14 PM 34.4328 -113.7653 245° Southwest 424 488 36,300 -1,805 Descending Albuquerque Center
Fri 07:31:15 PM 34.3853 -113.8997 247° West 430 495 34,300 -1,122 Descending Albuquerque Center
Fri 07:32:17 PM 34.3369 -114.0364 247° West 437 503 34,000 -390 Descending Albuquerque Center
Fri 07:33:18 PM 34.2878 -114.1717 246° West 438 504 33,500 -976 Descending Albuquerque Center
Fri 07:34:20 PM 34.2378 -114.3075 246° West 440 506 32,000 -1,561 Descending Albuquerque Center
Fri 07:35:21 PM 34.1886 -114.4431 246° West 439 505 30,300 -1,707 Descending Albuquerque Center
Fri 07:36:23 PM 34.1386 -114.5792 246° West 441 507 28,500 -972 Descending Albuquerque Center
Fri 07:37:43 PM 34.0661 -114.7619 244° Southwest 440 506 28,000 -210 Descending Los Angeles Center
Fri 07:38:46 PM 34.0097 -114.8903 242° Southwest 435 501 28,000 -432 Level Los Angeles Center
Fri 07:39:48 PM 33.9536 -115.0175 242° Southwest 431 496 27,100 -1,306 Descending Los Angeles Center
Fri 07:40:50 PM 33.8858 -115.1706 242° Southwest 434 499 25,300 -1,500 Descending Los Angeles Center
Fri 07:41:52 PM 33.8308 -115.2939 242° Southwest 422 486 24,000 -629 Descending Los Angeles Center
Fri 07:42:54 PM 33.7761 -115.4172 242° Southwest 419 482 24,000  Level Los Angeles Center
Fri 07:43:56 PM 33.7200 -115.5400 241° Southwest 421 484 24,000  Level Los Angeles Center
Fri 07:44:58 PM 33.6658 -115.6644 242° Southwest 422 486 24,000  Level Los Angeles Center
Fri 07:46:00 PM 33.5936 -115.8100 239° Southwest 422 486 24,000 -192 Level Los Angeles Center
Fri 07:47:03 PM 33.5256 -115.9258 235° Southwest 424 488 23,600 -1,248 Descending Los Angeles Center
Fri 07:48:05 PM 33.4364 -116.0147 220° Southwest 415 478 21,400 -2,081 Descending Los Angeles Center
Fri 07:49:07 PM 33.3517 -116.0997 220° Southwest 404 465 19,300 -2,177 Descending Los Angeles Center
Fri 07:50:09 PM 33.2689 -116.1828 220° Southwest 392 451 16,900 -2,081 Descending Los Angeles Center
Fri 07:51:11 PM 33.1897 -116.2614 220° Southwest 377 434 15,000 -1,984 Descending Los Angeles Center
Fri 07:52:13 PM 33.0972 -116.3533 220° Southwest 365 420 12,800 -1,452 Descending Los Angeles Center
Fri 07:53:15 PM 33.0244 -116.4253 220° Southwest 359 413 12,000 -387 Descending Los Angeles Center
Fri 07:54:17 PM 32.9406 -116.4797 209° Southwest 344 396 12,000 -726 Level Los Angeles Center
Fri 07:55:19 PM 32.8406 -116.5378 206° Southwest 344 396 10,500 -960 Descending Los Angeles Center
Fri 07:56:22 PM 32.7567 -116.5808 203° Southwest 336 387 10,000 -528 Descending Los Angeles Center
Fri 07:57:24 PM 32.6881 -116.6150 203° Southwest 281 323 9,400 -1,008 Descending Los Angeles Center
Fri 07:58:27 PM 32.6339 -116.6614 216° Southwest 266 306 7,900 -1,500 Descending Los Angeles Center
Fri 07:59:28 PM 32.6231 -116.7378 260° West 245 282 6,300 -927 Descending Los Angeles Center
Fri 08:00:30 PM 32.6408 -116.8106 286° West 232 267 6,000 -484 Descending Los Angeles Center
Fri 08:01:32 PM 32.6633 -116.9017 286° West 236 272 5,300 -1,059 Descending Los Angeles Center
Fri 08:02:12 PM 32.6833 -116.9500 296° West 227 261 4,200 -1,320 Descending Southern California TRACON
Fri 08:03:12 PM 32.6833 -117.0167 270° West 191 220 3,100 -1,000 Descending Southern California TRACON
Fri 08:04:12 PM 32.7000 -117.0667 292° West 151 174 2,200 -900 Descending Southern California TRACON
Fri 08:05:12 PM 32.7167 -117.1000 301° West 133 153 1,300 -694 Descending Southern California TRACON
Fri 08:06:13 PM 32.7167 -117.1500 270° West 129 148 800 -527 Descending Southern California TRACON
Fri 08:06:43 PM 32.7261 -117.1597 319° Northwest 128 147 500 -600 Descending Los Angeles Center
Fri 08:08:00 PM 32.7333 -117.1833 281° West  Level FlightAware Approximate
Fri 08:15:00 PM 32.7336 -117.1897 281° West  Level Estimated

Login

Don't have an account? Register now (free) for customized features, flight alerts, and more!